<?xml version="1.0" encoding="UTF-8" standalone="no" ?>
<gpx xmlns="http://www.topografix.com/GPX/1/1" xmlns:xsi="http://www.w3.org/2001/XMLSchema-instance" xsi:schemaLocation="http://www.topografix.com/GPX/1/1 http://www.topografix.com/GPX/1/1/gpx.xsd" version="1.1" creator="VisuGPX - https://www.visugpx.com">
  <metadata>
    <name>Tour des étangs</name>
    <desc><![CDATA[9,5 Km Dénivelé: 40 m IBP: 26]]></desc>
  </metadata>
  <trk>
    <name><![CDATA[tour des étangs 9,5km x 40m(2)]]></name>
    <extensions>
      <line xmlns="http://www.topografix.com/GPX/gpx_style/0/2">
        <width>4</width>
      </line>
    </extensions>
    <trkseg>
      <trkpt lat="45.30609" lon="4.11505">
        <ele>443</ele>
        <time>2025-02-23T06:45:20.348Z</time>
      </trkpt>
      <trkpt lat="45.30551" lon="4.11546">
        <ele>443.9</ele>
        <time>2025-02-23T06:45:27.536Z</time>
      </trkpt>
      <trkpt lat="45.30546" lon="4.11524">
        <ele>444.4</ele>
        <time>2025-02-23T06:45:29.351Z</time>
      </trkpt>
      <trkpt lat="45.30488" lon="4.11521">
        <ele>446.4</ele>
        <time>2025-02-23T06:45:35.874Z</time>
      </trkpt>
      <trkpt lat="45.30376" lon="4.11564">
        <ele>445.6</ele>
        <time>2025-02-23T06:45:48.777Z</time>
      </trkpt>
      <trkpt lat="45.30279" lon="4.11611">
        <ele>445.3</ele>
        <time>2025-02-23T06:46:00.100Z</time>
      </trkpt>
      <trkpt lat="45.30285" lon="4.11678">
        <ele>443.6</ele>
        <time>2025-02-23T06:46:05.336Z</time>
      </trkpt>
      <trkpt lat="45.30345" lon="4.11714">
        <ele>442.4</ele>
        <time>2025-02-23T06:46:12.629Z</time>
      </trkpt>
      <trkpt lat="45.30624" lon="4.11774">
        <ele>441.8</ele>
        <time>2025-02-23T06:46:43.992Z</time>
      </trkpt>
      <trkpt lat="45.30675" lon="4.11786">
        <ele>441.9</ele>
        <time>2025-02-23T06:46:49.737Z</time>
      </trkpt>
      <trkpt lat="45.3072" lon="4.1181">
        <ele>441.6</ele>
        <time>2025-02-23T06:46:55.039Z</time>
      </trkpt>
      <trkpt lat="45.30791" lon="4.11827">
        <ele>442.1</ele>
        <time>2025-02-23T06:47:03.045Z</time>
      </trkpt>
      <trkpt lat="45.30867" lon="4.11818">
        <ele>441.6</ele>
        <time>2025-02-23T06:47:11.557Z</time>
      </trkpt>
      <trkpt lat="45.30924" lon="4.11845">
        <ele>442.1</ele>
        <time>2025-02-23T06:47:18.247Z</time>
      </trkpt>
      <trkpt lat="45.3102" lon="4.11866">
        <ele>441.4</ele>
        <time>2025-02-23T06:47:29.067Z</time>
      </trkpt>
      <trkpt lat="45.31162" lon="4.11939">
        <ele>441.5</ele>
        <time>2025-02-23T06:47:45.807Z</time>
      </trkpt>
      <trkpt lat="45.31254" lon="4.12031">
        <ele>442.3</ele>
        <time>2025-02-23T06:47:58.290Z</time>
      </trkpt>
      <trkpt lat="45.31312" lon="4.12146">
        <ele>441.3</ele>
        <time>2025-02-23T06:48:09.410Z</time>
      </trkpt>
      <trkpt lat="45.3127" lon="4.12252">
        <ele>441.2</ele>
        <time>2025-02-23T06:48:18.887Z</time>
      </trkpt>
      <trkpt lat="45.31177" lon="4.12347">
        <ele>441.6</ele>
        <time>2025-02-23T06:48:31.582Z</time>
      </trkpt>
      <trkpt lat="45.31129" lon="4.12429">
        <ele>440.1</ele>
        <time>2025-02-23T06:48:39.939Z</time>
      </trkpt>
      <trkpt lat="45.31108" lon="4.1251">
        <ele>440.7</ele>
        <time>2025-02-23T06:48:46.702Z</time>
      </trkpt>
      <trkpt lat="45.3111" lon="4.12547">
        <ele>440.7</ele>
        <time>2025-02-23T06:48:49.587Z</time>
      </trkpt>
      <trkpt lat="45.31178" lon="4.12653">
        <ele>439.7</ele>
        <time>2025-02-23T06:49:00.771Z</time>
      </trkpt>
      <trkpt lat="45.31236" lon="4.12739">
        <ele>437.3</ele>
        <time>2025-02-23T06:49:10.071Z</time>
      </trkpt>
      <trkpt lat="45.31294" lon="4.12811">
        <ele>435.6</ele>
        <time>2025-02-23T06:49:18.611Z</time>
      </trkpt>
      <trkpt lat="45.31346" lon="4.12911">
        <ele>434.7</ele>
        <time>2025-02-23T06:49:28.386Z</time>
      </trkpt>
      <trkpt lat="45.3139" lon="4.12988">
        <ele>437.5</ele>
        <time>2025-02-23T06:49:36.136Z</time>
      </trkpt>
      <trkpt lat="45.31395" lon="4.13144">
        <ele>437.8</ele>
        <time>2025-02-23T06:49:48.381Z</time>
      </trkpt>
      <trkpt lat="45.3144" lon="4.13274">
        <ele>440.4</ele>
        <time>2025-02-23T06:49:59.728Z</time>
      </trkpt>
      <trkpt lat="45.3146" lon="4.13331">
        <ele>442.3</ele>
        <time>2025-02-23T06:50:04.701Z</time>
      </trkpt>
      <trkpt lat="45.31462" lon="4.13396">
        <ele>442.3</ele>
        <time>2025-02-23T06:50:09.803Z</time>
      </trkpt>
      <trkpt lat="45.31478" lon="4.13444">
        <ele>441.7</ele>
        <time>2025-02-23T06:50:13.960Z</time>
      </trkpt>
      <trkpt lat="45.31466" lon="4.13526">
        <ele>442.4</ele>
        <time>2025-02-23T06:50:20.481Z</time>
      </trkpt>
      <trkpt lat="45.31465" lon="4.1361">
        <ele>440.8</ele>
        <time>2025-02-23T06:50:27.083Z</time>
      </trkpt>
      <trkpt lat="45.31428" lon="4.13752">
        <ele>436.9</ele>
        <time>2025-02-23T06:50:38.976Z</time>
      </trkpt>
      <trkpt lat="45.31374" lon="4.13824">
        <ele>436.1</ele>
        <time>2025-02-23T06:50:47.182Z</time>
      </trkpt>
      <trkpt lat="45.3134" lon="4.1392">
        <ele>436</ele>
        <time>2025-02-23T06:50:55.626Z</time>
      </trkpt>
      <trkpt lat="45.31335" lon="4.14037">
        <ele>436</ele>
        <time>2025-02-23T06:51:04.783Z</time>
      </trkpt>
      <trkpt lat="45.3135" lon="4.14105">
        <ele>436</ele>
        <time>2025-02-23T06:51:10.300Z</time>
      </trkpt>
      <trkpt lat="45.31345" lon="4.14211">
        <ele>436</ele>
        <time>2025-02-23T06:51:18.618Z</time>
      </trkpt>
      <trkpt lat="45.31374" lon="4.14316">
        <ele>436.4</ele>
        <time>2025-02-23T06:51:27.427Z</time>
      </trkpt>
      <trkpt lat="45.31447" lon="4.14412">
        <ele>436</ele>
        <time>2025-02-23T06:51:38.492Z</time>
      </trkpt>
      <trkpt lat="45.31503" lon="4.14459">
        <ele>436.6</ele>
        <time>2025-02-23T06:51:45.672Z</time>
      </trkpt>
      <trkpt lat="45.31521" lon="4.14521">
        <ele>438.3</ele>
        <time>2025-02-23T06:51:50.907Z</time>
      </trkpt>
      <trkpt lat="45.31574" lon="4.1452">
        <ele>439.9</ele>
        <time>2025-02-23T06:51:56.824Z</time>
      </trkpt>
      <trkpt lat="45.31598" lon="4.14549">
        <ele>440.9</ele>
        <time>2025-02-23T06:52:00.371Z</time>
      </trkpt>
      <trkpt lat="45.31556" lon="4.14608">
        <ele>441</ele>
        <time>2025-02-23T06:52:06.934Z</time>
      </trkpt>
      <trkpt lat="45.31501" lon="4.1474">
        <ele>442</ele>
        <time>2025-02-23T06:52:18.917Z</time>
      </trkpt>
      <trkpt lat="45.31536" lon="4.14918">
        <ele>440.4</ele>
        <time>2025-02-23T06:52:33.332Z</time>
      </trkpt>
      <trkpt lat="45.31604" lon="4.151">
        <ele>440.8</ele>
        <time>2025-02-23T06:52:49.501Z</time>
      </trkpt>
      <trkpt lat="45.31635" lon="4.15163">
        <ele>441.5</ele>
        <time>2025-02-23T06:52:55.469Z</time>
      </trkpt>
      <trkpt lat="45.31698" lon="4.15232">
        <ele>444.4</ele>
        <time>2025-02-23T06:53:04.369Z</time>
      </trkpt>
      <trkpt lat="45.31758" lon="4.15186">
        <ele>454</ele>
        <time>2025-02-23T06:53:11.915Z</time>
      </trkpt>
      <trkpt lat="45.31808" lon="4.15157">
        <ele>458.9</ele>
        <time>2025-02-23T06:53:18.016Z</time>
      </trkpt>
      <trkpt lat="45.3183" lon="4.15074">
        <ele>460.5</ele>
        <time>2025-02-23T06:53:24.939Z</time>
      </trkpt>
      <trkpt lat="45.31859" lon="4.15025">
        <ele>460.3</ele>
        <time>2025-02-23T06:53:29.891Z</time>
      </trkpt>
      <trkpt lat="45.31883" lon="4.15045">
        <ele>461.2</ele>
        <time>2025-02-23T06:53:32.994Z</time>
      </trkpt>
      <trkpt lat="45.31918" lon="4.15041">
        <ele>462</ele>
        <time>2025-02-23T06:53:36.938Z</time>
      </trkpt>
      <trkpt lat="45.31967" lon="4.15037">
        <ele>462.7</ele>
        <time>2025-02-23T06:53:42.429Z</time>
      </trkpt>
      <trkpt lat="45.32017" lon="4.14917">
        <ele>464.2</ele>
        <time>2025-02-23T06:53:53.293Z</time>
      </trkpt>
      <trkpt lat="45.32053" lon="4.14825">
        <ele>463.9</ele>
        <time>2025-02-23T06:54:01.565Z</time>
      </trkpt>
      <trkpt lat="45.32043" lon="4.14782">
        <ele>462.2</ele>
        <time>2025-02-23T06:54:05.048Z</time>
      </trkpt>
      <trkpt lat="45.31985" lon="4.14702">
        <ele>455.7</ele>
        <time>2025-02-23T06:54:14.084Z</time>
      </trkpt>
      <trkpt lat="45.31952" lon="4.14672">
        <ele>451.2</ele>
        <time>2025-02-23T06:54:18.467Z</time>
      </trkpt>
      <trkpt lat="45.31914" lon="4.1459">
        <ele>447</ele>
        <time>2025-02-23T06:54:26.200Z</time>
      </trkpt>
      <trkpt lat="45.31876" lon="4.14624">
        <ele>446</ele>
        <time>2025-02-23T06:54:31.151Z</time>
      </trkpt>
      <trkpt lat="45.31842" lon="4.14707">
        <ele>446.3</ele>
        <time>2025-02-23T06:54:38.661Z</time>
      </trkpt>
      <trkpt lat="45.31789" lon="4.1468">
        <ele>444.2</ele>
        <time>2025-02-23T06:54:44.955Z</time>
      </trkpt>
      <trkpt lat="45.31735" lon="4.14639">
        <ele>443</ele>
        <time>2025-02-23T06:54:51.814Z</time>
      </trkpt>
      <trkpt lat="45.31693" lon="4.14569">
        <ele>442.7</ele>
        <time>2025-02-23T06:54:58.952Z</time>
      </trkpt>
      <trkpt lat="45.31602" lon="4.14527">
        <ele>440.6</ele>
        <time>2025-02-23T06:55:09.656Z</time>
      </trkpt>
      <trkpt lat="45.31609" lon="4.14454">
        <ele>439.2</ele>
        <time>2025-02-23T06:55:15.441Z</time>
      </trkpt>
      <trkpt lat="45.31613" lon="4.14391">
        <ele>437.8</ele>
        <time>2025-02-23T06:55:20.413Z</time>
      </trkpt>
      <trkpt lat="45.31655" lon="4.14305">
        <ele>438</ele>
        <time>2025-02-23T06:55:28.576Z</time>
      </trkpt>
      <trkpt lat="45.31692" lon="4.14196">
        <ele>438.7</ele>
        <time>2025-02-23T06:55:37.997Z</time>
      </trkpt>
      <trkpt lat="45.31701" lon="4.14031">
        <ele>439.8</ele>
        <time>2025-02-23T06:55:50.939Z</time>
      </trkpt>
      <trkpt lat="45.3171" lon="4.13869">
        <ele>440.5</ele>
        <time>2025-02-23T06:56:03.698Z</time>
      </trkpt>
      <trkpt lat="45.31725" lon="4.13714">
        <ele>441.3</ele>
        <time>2025-02-23T06:56:15.885Z</time>
      </trkpt>
      <trkpt lat="45.31748" lon="4.13623">
        <ele>441.5</ele>
        <time>2025-02-23T06:56:23.484Z</time>
      </trkpt>
      <trkpt lat="45.31773" lon="4.13549">
        <ele>442.2</ele>
        <time>2025-02-23T06:56:29.835Z</time>
      </trkpt>
      <trkpt lat="45.31773" lon="4.13463">
        <ele>441.7</ele>
        <time>2025-02-23T06:56:36.609Z</time>
      </trkpt>
      <trkpt lat="45.31765" lon="4.13358">
        <ele>440.7</ele>
        <time>2025-02-23T06:56:44.820Z</time>
      </trkpt>
      <trkpt lat="45.31842" lon="4.13325">
        <ele>443.1</ele>
        <time>2025-02-23T06:56:53.729Z</time>
      </trkpt>
      <trkpt lat="45.31945" lon="4.13333">
        <ele>445.7</ele>
        <time>2025-02-23T06:57:05.162Z</time>
      </trkpt>
      <trkpt lat="45.32015" lon="4.13284">
        <ele>448.2</ele>
        <time>2025-02-23T06:57:13.858Z</time>
      </trkpt>
      <trkpt lat="45.32007" lon="4.13149">
        <ele>449.2</ele>
        <time>2025-02-23T06:57:24.455Z</time>
      </trkpt>
      <trkpt lat="45.32006" lon="4.13045">
        <ele>449.1</ele>
        <time>2025-02-23T06:57:32.567Z</time>
      </trkpt>
      <trkpt lat="45.31987" lon="4.1295">
        <ele>448.7</ele>
        <time>2025-02-23T06:57:40.354Z</time>
      </trkpt>
      <trkpt lat="45.31979" lon="4.12879">
        <ele>448.9</ele>
        <time>2025-02-23T06:57:45.955Z</time>
      </trkpt>
      <trkpt lat="45.31974" lon="4.12809">
        <ele>449.7</ele>
        <time>2025-02-23T06:57:51.431Z</time>
      </trkpt>
      <trkpt lat="45.31957" lon="4.12755">
        <ele>449.9</ele>
        <time>2025-02-23T06:57:56.067Z</time>
      </trkpt>
      <trkpt lat="45.31954" lon="4.12695">
        <ele>449.6</ele>
        <time>2025-02-23T06:58:00.737Z</time>
      </trkpt>
      <trkpt lat="45.31898" lon="4.1264">
        <ele>447.1</ele>
        <time>2025-02-23T06:58:08.371Z</time>
      </trkpt>
      <trkpt lat="45.31854" lon="4.12638">
        <ele>445</ele>
        <time>2025-02-23T06:58:13.270Z</time>
      </trkpt>
      <trkpt lat="45.31808" lon="4.12612">
        <ele>443.7</ele>
        <time>2025-02-23T06:58:18.745Z</time>
      </trkpt>
      <trkpt lat="45.31771" lon="4.12617">
        <ele>443.3</ele>
        <time>2025-02-23T06:58:22.855Z</time>
      </trkpt>
      <trkpt lat="45.31732" lon="4.12636">
        <ele>442.6</ele>
        <time>2025-02-23T06:58:27.529Z</time>
      </trkpt>
      <trkpt lat="45.31705" lon="4.12609">
        <ele>441.9</ele>
        <time>2025-02-23T06:58:31.129Z</time>
      </trkpt>
      <trkpt lat="45.31674" lon="4.12584">
        <ele>441.2</ele>
        <time>2025-02-23T06:58:35.092Z</time>
      </trkpt>
      <trkpt lat="45.31658" lon="4.12495">
        <ele>439.8</ele>
        <time>2025-02-23T06:58:42.269Z</time>
      </trkpt>
      <trkpt lat="45.31687" lon="4.1244">
        <ele>440.2</ele>
        <time>2025-02-23T06:58:47.689Z</time>
      </trkpt>
      <trkpt lat="45.31719" lon="4.12423">
        <ele>441.6</ele>
        <time>2025-02-23T06:58:51.525Z</time>
      </trkpt>
      <trkpt lat="45.31734" lon="4.12388">
        <ele>441.3</ele>
        <time>2025-02-23T06:58:54.708Z</time>
      </trkpt>
      <trkpt lat="45.31702" lon="4.12356">
        <ele>439.3</ele>
        <time>2025-02-23T06:58:59.071Z</time>
      </trkpt>
      <trkpt lat="45.31648" lon="4.12325">
        <ele>438.1</ele>
        <time>2025-02-23T06:59:05.476Z</time>
      </trkpt>
      <trkpt lat="45.31589" lon="4.12303">
        <ele>438.7</ele>
        <time>2025-02-23T06:59:12.278Z</time>
      </trkpt>
      <trkpt lat="45.3153" lon="4.12283">
        <ele>438.4</ele>
        <time>2025-02-23T06:59:19.041Z</time>
      </trkpt>
      <trkpt lat="45.31461" lon="4.12214">
        <ele>439.1</ele>
        <time>2025-02-23T06:59:28.404Z</time>
      </trkpt>
      <trkpt lat="45.31423" lon="4.12174">
        <ele>440.7</ele>
        <time>2025-02-23T06:59:33.658Z</time>
      </trkpt>
      <trkpt lat="45.31382" lon="4.1212">
        <ele>441</ele>
        <time>2025-02-23T06:59:39.888Z</time>
      </trkpt>
      <trkpt lat="45.31339" lon="4.12133">
        <ele>441</ele>
        <time>2025-02-23T06:59:44.827Z</time>
      </trkpt>
      <trkpt lat="45.31321" lon="4.12142">
        <ele>441.2</ele>
        <time>2025-02-23T06:59:46.876Z</time>
      </trkpt>
      <trkpt lat="45.31285" lon="4.12079">
        <ele>442.2</ele>
        <time>2025-02-23T06:59:53.297Z</time>
      </trkpt>
      <trkpt lat="45.31241" lon="4.12009">
        <ele>442.2</ele>
        <time>2025-02-23T07:00:00.615Z</time>
      </trkpt>
      <trkpt lat="45.31191" lon="4.11955">
        <ele>441.8</ele>
        <time>2025-02-23T07:00:07.542Z</time>
      </trkpt>
      <trkpt lat="45.31136" lon="4.11919">
        <ele>441.4</ele>
        <time>2025-02-23T07:00:14.278Z</time>
      </trkpt>
      <trkpt lat="45.31084" lon="4.11891">
        <ele>441.7</ele>
        <time>2025-02-23T07:00:20.522Z</time>
      </trkpt>
      <trkpt lat="45.31033" lon="4.11866">
        <ele>441.4</ele>
        <time>2025-02-23T07:00:26.534Z</time>
      </trkpt>
      <trkpt lat="45.31026" lon="4.1183">
        <ele>441</ele>
        <time>2025-02-23T07:00:29.421Z</time>
      </trkpt>
      <trkpt lat="45.31006" lon="4.11742">
        <ele>442.2</ele>
        <time>2025-02-23T07:00:36.618Z</time>
      </trkpt>
      <trkpt lat="45.3099" lon="4.11654">
        <ele>444.2</ele>
        <time>2025-02-23T07:00:43.729Z</time>
      </trkpt>
      <trkpt lat="45.30958" lon="4.11624">
        <ele>444.3</ele>
        <time>2025-02-23T07:00:48.015Z</time>
      </trkpt>
      <trkpt lat="45.30942" lon="4.11578">
        <ele>445.2</ele>
        <time>2025-02-23T07:00:52.040Z</time>
      </trkpt>
      <trkpt lat="45.30905" lon="4.11541">
        <ele>445.6</ele>
        <time>2025-02-23T07:00:57.053Z</time>
      </trkpt>
      <trkpt lat="45.30876" lon="4.11506">
        <ele>445.8</ele>
        <time>2025-02-23T07:01:01.298Z</time>
      </trkpt>
      <trkpt lat="45.30829" lon="4.11483">
        <ele>444.7</ele>
        <time>2025-02-23T07:01:06.875Z</time>
      </trkpt>
      <trkpt lat="45.30794" lon="4.11469">
        <ele>444.1</ele>
        <time>2025-02-23T07:01:10.928Z</time>
      </trkpt>
      <trkpt lat="45.30752" lon="4.11483">
        <ele>441.9</ele>
        <time>2025-02-23T07:01:15.654Z</time>
      </trkpt>
      <trkpt lat="45.30712" lon="4.11503">
        <ele>441.8</ele>
        <time>2025-02-23T07:01:20.414Z</time>
      </trkpt>
      <trkpt lat="45.30663" lon="4.11515">
        <ele>443.2</ele>
        <time>2025-02-23T07:01:25.960Z</time>
      </trkpt>
      <trkpt lat="45.30625" lon="4.11527">
        <ele>443.2</ele>
        <time>2025-02-23T07:01:30.234Z</time>
      </trkpt>
      <trkpt lat="45.30609" lon="4.11505">
        <ele>443</ele>
        <time>2025-02-23T07:01:32.714Z</time>
      </trkpt>
    </trkseg>
  </trk>
</gpx>